sensor_id;sensor_type;location;lat;lon;timestamp;pressure;altitude;pressure_sealevel;temperature;humidity
70833;BME280;58452;59.418;17.962;2022-09-12T00:01:17;101434.06;;;9.05;72.10
70833;BME280;58452;59.418;17.962;2022-09-12T00:03:44;101425.41;;;9.06;71.89
70833;BME280;58452;59.418;17.962;2022-09-12T00:06:12;101423.78;;;9.05;71.42
70833;BME280;58452;59.418;17.962;2022-09-12T00:08:40;101421.78;;;8.97;72.16
70833;BME280;58452;59.418;17.962;2022-09-12T00:11:07;101426.09;;;8.97;72.13
70833;BME280;58452;59.418;17.962;2022-09-12T00:13:33;101425.50;;;8.93;72.45
70833;BME280;58452;59.418;17.962;2022-09-12T00:15:59;101426.34;;;8.94;72.75
70833;BME280;58452;59.418;17.962;2022-09-12T00:18:25;101423.25;;;8.89;72.44
70833;BME280;58452;59.418;17.962;2022-09-12T00:20:50;101424.09;;;8.89;72.41
70833;BME280;58452;59.418;17.962;2022-09-12T00:23:16;101430.53;;;8.83;72.91
70833;BME280;58452;59.418;17.962;2022-09-12T00:25:46;101434.84;;;8.83;72.64
70833;BME280;58452;59.418;17.962;2022-09-12T00:28:13;101425.59;;;8.80;72.63
70833;BME280;58452;59.418;17.962;2022-09-12T00:30:44;101429.94;;;8.80;72.86
70833;BME280;58452;59.418;17.962;2022-09-12T00:33:10;101423.72;;;8.82;72.43
70833;BME280;58452;59.418;17.962;2022-09-12T00:35:41;101421.25;;;8.81;71.91
70833;BME280;58452;59.418;17.962;2022-09-12T00:38:06;101416.81;;;8.72;72.88
70833;BME280;58452;59.418;17.962;2022-09-12T00:40:32;101419.38;;;8.72;73.05
70833;BME280;58452;59.418;17.962;2022-09-12T00:42:57;101421.94;;;8.72;72.65
70833;BME280;58452;59.418;17.962;2022-09-12T00:45:26;101420.84;;;8.63;72.88
70833;BME280;58452;59.418;17.962;2022-09-12T00:47:54;101421.34;;;8.68;72.64
70833;BME280;58452;59.418;17.962;2022-09-12T00:50:21;101419.94;;;8.64;72.56
70833;BME280;58452;59.418;17.962;2022-09-12T00:52:48;101416.63;;;8.62;72.67
70833;BME280;58452;59.418;17.962;2022-09-12T00:55:19;101422.00;;;8.59;72.89
70833;BME280;58452;59.418;17.962;2022-09-12T01:00:25;101408.44;;;8.57;72.66
70833;BME280;58452;59.418;17.962;2022-09-12T01:05:23;101418.25;;;8.52;72.46
70833;BME280;58452;59.418;17.962;2022-09-12T01:07:51;101412.28;;;8.52;72.48
70833;BME280;58452;59.418;17.962;2022-09-12T01:10:17;101407.03;;;8.53;72.69
70833;BME280;58452;59.418;17.962;2022-09-12T01:12:44;101402.72;;;8.54;72.16
70833;BME280;58452;59.418;17.962;2022-09-12T01:15:10;101394.88;;;8.55;71.89
70833;BME280;58452;59.418;17.962;2022-09-12T01:23:22;101405.56;;;8.38;73.20
70833;BME280;58452;59.418;17.962;2022-09-12T01:32:09;101397.03;;;8.38;73.29
70833;BME280;58452;59.418;17.962;2022-09-12T01:37:34;101401.19;;;8.27;73.82
70833;BME280;58452;59.418;17.962;2022-09-12T01:40:36;101405.44;;;8.28;73.70
70833;BME280;58452;59.418;17.962;2022-09-12T01:43:22;101398.31;;;8.32;73.74
70833;BME280;58452;59.418;17.962;2022-09-12T01:45:55;101406.25;;;8.29;73.43
70833;BME280;58452;59.418;17.962;2022-09-12T01:48:27;101398.69;;;8.26;73.78
70833;BME280;58452;59.418;17.962;2022-09-12T01:51:10;101400.34;;;8.27;73.55
70833;BME280;58452;59.418;17.962;2022-09-12T01:53:43;101391.72;;;8.28;73.25
70833;BME280;58452;59.418;17.962;2022-09-12T01:56:15;101393.41;;;8.29;72.75
70833;BME280;58452;59.418;17.962;2022-09-12T01:58:53;101398.53;;;8.29;72.83
70833;BME280;58452;59.418;17.962;2022-09-12T02:01:27;101398.69;;;8.26;73.13
70833;BME280;58452;59.418;17.962;2022-09-12T02:04:15;101402.22;;;8.25;73.12
70833;BME280;58452;59.418;17.962;2022-09-12T02:06:56;101402.00;;;8.28;73.12
70833;BME280;58452;59.418;17.962;2022-09-12T02:09:28;101399.53;;;8.26;72.81
70833;BME280;58452;59.418;17.962;2022-09-12T02:11:58;101405.94;;;8.21;73.33
70833;BME280;58452;59.418;17.962;2022-09-12T02:14:30;101407.69;;;8.20;73.66
70833;BME280;58452;59.418;17.962;2022-09-12T02:17:04;101405.94;;;8.21;73.66
70833;BME280;58452;59.418;17.962;2022-09-12T02:19:43;101398.56;;;8.16;73.60
70833;BME280;58452;59.418;17.962;2022-09-12T02:22:14;101409.06;;;8.13;73.57
70833;BME280;58452;59.418;17.962;2022-09-12T02:24:45;101409.88;;;8.14;73.57
70833;BME280;58452;59.418;17.962;2022-09-12T02:27:34;101407.31;;;8.14;73.39
70833;BME280;58452;59.418;17.962;2022-09-12T02:30:06;101398.19;;;8.10;73.34
70833;BME280;58452;59.418;17.962;2022-09-12T02:32:44;101401.88;;;8.06;73.47
70833;BME280;58452;59.418;17.962;2022-09-12T02:35:35;101397.66;;;8.05;73.55
70833;BME280;58452;59.418;17.962;2022-09-12T02:38:06;101405.38;;;8.05;73.56
70833;BME280;58452;59.418;17.962;2022-09-12T02:40:34;101396.75;;;8.06;73.57
70833;BME280;58452;59.418;17.962;2022-09-12T02:43:02;101405.38;;;8.05;73.31
70833;BME280;58452;59.418;17.962;2022-09-12T02:45:29;101402.59;;;8.08;73.69
70833;BME280;58452;59.418;17.962;2022-09-12T02:50:25;101402.38;;;8.11;74.74
70833;BME280;58452;59.418;17.962;2022-09-12T02:52:51;101393.63;;;8.13;74.81
70833;BME280;58452;59.418;17.962;2022-09-12T02:55:25;101401.03;;;8.18;74.78
70833;BME280;58452;59.418;17.962;2022-09-12T02:57:51;101397.84;;;8.14;74.78
70833;BME280;58452;59.418;17.962;2022-09-12T03:00:16;101399.59;;;8.14;74.83
70833;BME280;58452;59.418;17.962;2022-09-12T03:05:30;101398.22;;;8.21;74.60
70833;BME280;58452;59.418;17.962;2022-09-12T03:21:03;101402.91;;;8.40;75.42
70833;BME280;58452;59.418;17.962;2022-09-12T03:23:39;101402.78;;;8.41;75.59
70833;BME280;58452;59.418;17.962;2022-09-12T03:26:35;101395.56;;;8.46;75.79
70833;BME280;58452;59.418;17.962;2022-09-12T03:29:03;101390.41;;;8.46;76.16
70833;BME280;58452;59.418;17.962;2022-09-12T03:31:30;101382.47;;;8.49;75.82
70833;BME280;58452;59.418;17.962;2022-09-12T03:33:56;101387.16;;;8.55;75.65
70833;BME280;58452;59.418;17.962;2022-09-12T03:36:23;101383.41;;;8.59;75.86
70833;BME280;58452;59.418;17.962;2022-09-12T03:38:50;101384.84;;;8.63;75.66
70833;BME280;58452;59.418;17.962;2022-09-12T03:41:15;101392.56;;;8.63;75.84
70833;BME280;58452;59.418;17.962;2022-09-12T03:43:41;101380.41;;;8.65;75.56
70833;BME280;58452;59.418;17.962;2022-09-12T03:46:06;101385.19;;;8.70;76.18
70833;BME280;58452;59.418;17.962;2022-09-12T03:48:32;101385.00;;;8.73;76.30
70833;BME280;58452;59.418;17.962;2022-09-12T03:51:02;101387.09;;;8.79;76.10
70833;BME280;58452;59.418;17.962;2022-09-12T03:53:28;101387.78;;;8.81;75.45
70833;BME280;58452;59.418;17.962;2022-09-12T03:55:55;101385.94;;;8.83;75.41
70833;BME280;58452;59.418;17.962;2022-09-12T03:58:20;101390.50;;;8.79;75.62
70833;BME280;58452;59.418;17.962;2022-09-12T04:00:45;101390.38;;;8.81;75.06
70833;BME280;58452;59.418;17.962;2022-09-12T04:03:11;101387.78;;;8.81;75.10
70833;BME280;58452;59.418;17.962;2022-09-12T04:05:36;101393.91;;;8.80;74.80
70833;BME280;58452;59.418;17.962;2022-09-12T04:08:02;101386.97;;;8.80;74.56
70833;BME280;58452;59.418;17.962;2022-09-12T04:10:27;101391.19;;;8.81;74.50
70833;BME280;58452;59.418;17.962;2022-09-12T04:12:52;101395.53;;;8.81;74.45
70833;BME280;58452;59.418;17.962;2022-09-12T04:15:18;101390.50;;;8.79;74.10
70833;BME280;58452;59.418;17.962;2022-09-12T04:17:43;101386.38;;;8.77;73.93
70833;BME280;58452;59.418;17.962;2022-09-12T04:20:09;101388.38;;;8.73;73.98
70833;BME280;58452;59.418;17.962;2022-09-12T04:22:34;101386.63;;;8.74;73.94
70833;BME280;58452;59.418;17.962;2022-09-12T04:24:59;101379.72;;;8.74;73.97
70833;BME280;58452;59.418;17.962;2022-09-12T04:27:25;101385.19;;;8.70;73.92
70833;BME280;58452;59.418;17.962;2022-09-12T04:29:50;101384.59;;;8.66;74.28
70833;BME280;58452;59.418;17.962;2022-09-12T04:32:16;101388.13;;;8.65;73.93
70833;BME280;58452;59.418;17.962;2022-09-12T04:34:42;101392.78;;;8.60;74.05
70833;BME280;58452;59.418;17.962;2022-09-12T04:37:07;101383.31;;;8.61;74.44
70833;BME280;58452;59.418;17.962;2022-09-12T04:39:33;101385.16;;;8.59;74.09
70833;BME280;58452;59.418;17.962;2022-09-12T04:41:58;101383.56;;;8.58;74.47
70833;BME280;58452;59.418;17.962;2022-09-12T04:44:23;101387.16;;;8.55;74.65
70833;BME280;58452;59.418;17.962;2022-09-12T04:46:49;101400.00;;;8.55;74.34
70833;BME280;58452;59.418;17.962;2022-09-12T04:49:15;101397.44;;;8.55;74.37
70833;BME280;58452;59.418;17.962;2022-09-12T04:51:42;101391.81;;;8.50;74.48
70833;BME280;58452;59.418;17.962;2022-09-12T04:54:11;101403.53;;;8.54;74.52
70833;BME280;58452;59.418;17.962;2022-09-12T04:56:39;101394.28;;;8.52;74.89
70833;BME280;58452;59.418;17.962;2022-09-12T04:59:05;101396.97;;;8.50;74.74
70833;BME280;58452;59.418;17.962;2022-09-12T05:01:31;101394.06;;;8.55;74.67
70833;BME280;58452;59.418;17.962;2022-09-12T05:03:58;101393.03;;;8.57;74.77
70833;BME280;58452;59.418;17.962;2022-09-12T05:06:29;101394.88;;;8.55;75.02
70833;BME280;58452;59.418;17.962;2022-09-12T05:08:56;101393.03;;;8.57;75.01
70833;BME280;58452;59.418;17.962;2022-09-12T05:11:25;101389.28;;;8.61;75.28
70833;BME280;58452;59.418;17.962;2022-09-12T05:13:50;101386.59;;;8.63;74.99
70833;BME280;58452;59.418;17.962;2022-09-12T05:16:17;101383.91;;;8.64;75.17
70833;BME280;58452;59.418;17.962;2022-09-12T05:18:43;101392.91;;;8.70;75.06
70833;BME280;58452;59.418;17.962;2022-09-12T05:21:14;101393.50;;;8.73;75.17
70833;BME280;58452;59.418;17.962;2022-09-12T05:23:40;101385.47;;;8.78;75.47
70833;BME280;58452;59.418;17.962;2022-09-12T05:26:07;101384.78;;;8.87;75.38
70833;BME280;58452;59.418;17.962;2022-09-12T05:28:35;101382.56;;;8.94;75.63
70833;BME280;58452;59.418;17.962;2022-09-12T05:31:07;101387.13;;;9.01;75.41
70833;BME280;58452;59.418;17.962;2022-09-12T05:33:34;101387.50;;;9.08;75.79
70833;BME280;58452;59.418;17.962;2022-09-12T05:36:00;101387.59;;;9.17;75.95
70833;BME280;58452;59.418;17.962;2022-09-12T05:38:26;101385.28;;;9.25;75.66
70833;BME280;58452;59.418;17.962;2022-09-12T05:40:55;101381.19;;;9.34;76.08
70833;BME280;58452;59.418;17.962;2022-09-12T05:43:27;101387.25;;;9.44;76.22
70833;BME280;58452;59.418;17.962;2022-09-12T05:46:05;101390.75;;;9.54;76.11
70833;BME280;58452;59.418;17.962;2022-09-12T05:48:38;101392.53;;;9.65;76.01
70833;BME280;58452;59.418;17.962;2022-09-12T05:51:10;101389.09;;;9.75;76.59
70833;BME280;58452;59.418;17.962;2022-09-12T05:53:38;101389.19;;;9.85;76.34
70833;BME280;58452;59.418;17.962;2022-09-12T05:56:09;101391.84;;;9.95;76.07
70833;BME280;58452;59.418;17.962;2022-09-12T05:58:37;101390.88;;;10.07;76.09
70833;BME280;58452;59.418;17.962;2022-09-12T06:01:08;101395.09;;;10.19;75.88
70833;BME280;58452;59.418;17.962;2022-09-12T06:03:38;101397.50;;;10.32;75.51
70833;BME280;58452;59.418;17.962;2022-09-12T06:06:04;101400.03;;;10.43;75.35
70833;BME280;58452;59.418;17.962;2022-09-12T06:08:34;101393.78;;;10.56;75.28
70833;BME280;58452;59.418;17.962;2022-09-12T06:11:04;101392.75;;;10.68;75.13
70833;BME280;58452;59.418;17.962;2022-09-12T06:13:35;101391.06;;;10.78;74.88
70833;BME280;58452;59.418;17.962;2022-09-12T06:16:11;101390.84;;;10.91;75.65
70833;BME280;58452;59.418;17.962;2022-09-12T06:18:38;101389.28;;;11.00;75.95
70833;BME280;58452;59.418;17.962;2022-09-12T06:21:07;101389.88;;;11.13;76.59
70833;BME280;58452;59.418;17.962;2022-09-12T06:23:33;101390.34;;;11.27;77.63
70833;BME280;58452;59.418;17.962;2022-09-12T06:25:59;101394.22;;;11.43;77.81
70833;BME280;58452;59.418;17.962;2022-09-12T06:28:25;101395.06;;;11.53;77.85
70833;BME280;58452;59.418;17.962;2022-09-12T06:30:50;101404.91;;;11.68;78.53
70833;BME280;58452;59.418;17.962;2022-09-12T06:33:16;101388.09;;;11.84;78.99
70833;BME280;58452;59.418;17.962;2022-09-12T06:35:41;101397.22;;;11.97;79.61
70833;BME280;58452;59.418;17.962;2022-09-12T06:38:07;101393.97;;;12.14;80.29
70833;BME280;58452;59.418;17.962;2022-09-12T06:40:34;101387.44;;;12.30;80.40
70833;BME280;58452;59.418;17.962;2022-09-12T06:42:59;101385.25;;;12.44;80.67
70833;BME280;58452;59.418;17.962;2022-09-12T06:45:25;101386.19;;;12.62;80.98
70833;BME280;58452;59.418;17.962;2022-09-12T06:47:50;101378.78;;;12.77;80.61
70833;BME280;58452;59.418;17.962;2022-09-12T06:50:16;101379.97;;;12.92;80.56
70833;BME280;58452;59.418;17.962;2022-09-12T06:52:41;101372.44;;;13.08;80.77
70833;BME280;58452;59.418;17.962;2022-09-12T06:55:08;101367.63;;;13.23;80.78
70833;BME280;58452;59.418;17.962;2022-09-12T06:57:34;101374.66;;;13.40;80.71
70833;BME280;58452;59.418;17.962;2022-09-12T07:00:05;101366.13;;;13.57;80.54
70833;BME280;58452;59.418;17.962;2022-09-12T07:02:31;101369.81;;;13.73;80.05
70833;BME280;58452;59.418;17.962;2022-09-12T07:04:56;101365.09;;;13.86;79.18
70833;BME280;58452;59.418;17.962;2022-09-12T07:07:22;101366.78;;;13.95;77.47
70833;BME280;58452;59.418;17.962;2022-09-12T07:09:48;101369.59;;;13.84;75.39
70833;BME280;58452;59.418;17.962;2022-09-12T07:12:14;101371.69;;;13.98;75.03
70833;BME280;58452;59.418;17.962;2022-09-12T07:14:39;101366.56;;;14.06;74.60
70833;BME280;58452;59.418;17.962;2022-09-12T07:17:04;101372.53;;;14.16;74.43
70833;BME280;58452;59.418;17.962;2022-09-12T07:19:30;101367.84;;;14.19;74.26
70833;BME280;58452;59.418;17.962;2022-09-12T07:21:56;101369.63;;;14.19;73.65
70833;BME280;58452;59.418;17.962;2022-09-12T07:24:21;101378.00;;;14.13;72.75
70833;BME280;58452;59.418;17.962;2022-09-12T07:26:47;101377.78;;;14.06;72.77
70833;BME280;58452;59.418;17.962;2022-09-12T07:29:14;101375.78;;;13.83;72.25
70833;BME280;58452;59.418;17.962;2022-09-12T07:31:40;101376.88;;;13.80;72.76
70833;BME280;58452;59.418;17.962;2022-09-12T07:34:06;101374.59;;;13.95;72.93
70833;BME280;58452;59.418;17.962;2022-09-12T07:36:31;101372.06;;;14.03;71.90
70833;BME280;58452;59.418;17.962;2022-09-12T07:38:57;101368.34;;;14.05;71.72
70833;BME280;58452;59.418;17.962;2022-09-12T07:41:27;101371.25;;;14.20;71.46
70833;BME280;58452;59.418;17.962;2022-09-12T07:43:55;101371.69;;;14.33;71.22
70833;BME280;58452;59.418;17.962;2022-09-12T07:46:21;101375.66;;;14.37;70.86
70833;BME280;58452;59.418;17.962;2022-09-12T07:48:55;101379.22;;;14.36;71.35
70833;BME280;58452;59.418;17.962;2022-09-12T07:51:21;101377.03;;;14.49;71.08
70833;BME280;58452;59.418;17.962;2022-09-12T07:53:47;101371.59;;;14.60;71.01
70833;BME280;58452;59.418;17.962;2022-09-12T07:56:17;101376.44;;;14.55;70.28
70833;BME280;58452;59.418;17.962;2022-09-12T07:58:44;101375.56;;;14.47;70.46
70833;BME280;58452;59.418;17.962;2022-09-12T08:01:20;101376.19;;;14.31;71.33
70833;BME280;58452;59.418;17.962;2022-09-12T08:03:49;101376.94;;;14.24;72.38
70833;BME280;58452;59.418;17.962;2022-09-12T08:06:18;101373.06;;;14.37;72.37
70833;BME280;58452;59.418;17.962;2022-09-12T08:08:51;101372.19;;;14.54;71.50
70833;BME280;58452;59.418;17.962;2022-09-12T08:11:19;101371.00;;;14.66;71.26
70833;BME280;58452;59.418;17.962;2022-09-12T08:13:46;101374.88;;;14.62;70.65
70833;BME280;58452;59.418;17.962;2022-09-12T08:16:18;101374.91;;;14.45;70.69
70833;BME280;58452;59.418;17.962;2022-09-12T08:18:45;101381.97;;;14.60;70.24
70833;BME280;58452;59.418;17.962;2022-09-12T08:21:19;101375.88;;;14.70;71.16
70833;BME280;58452;59.418;17.962;2022-09-12T08:23:46;101372.72;;;14.84;69.43
70833;BME280;58452;59.418;17.962;2022-09-12T08:26:12;101371.13;;;14.91;69.72
70833;BME280;58452;59.418;17.962;2022-09-12T08:28:38;101368.13;;;15.03;69.81
70833;BME280;58452;59.418;17.962;2022-09-12T08:31:10;101365.09;;;15.16;69.23
70833;BME280;58452;59.418;17.962;2022-09-12T08:33:36;101367.25;;;15.29;68.58
70833;BME280;58452;59.418;17.962;2022-09-12T08:36:06;101366.44;;;15.28;68.04
70833;BME280;58452;59.418;17.962;2022-09-12T08:38:33;101369.09;;;15.36;67.70
70833;BME280;58452;59.418;17.962;2022-09-12T08:41:10;101368.72;;;15.31;67.90
70833;BME280;58452;59.418;17.962;2022-09-12T08:46:33;101366.41;;;15.54;65.47
70833;BME280;58452;59.418;17.962;2022-09-12T08:49:03;101366.25;;;15.63;65.26
70833;BME280;58452;59.418;17.962;2022-09-12T08:51:32;101363.69;;;15.72;64.95
70833;BME280;58452;59.418;17.962;2022-09-12T08:54:00;101369.56;;;15.82;65.81
70833;BME280;58452;59.418;17.962;2022-09-12T08:56:28;101353.63;;;15.93;64.82
70833;BME280;58452;59.418;17.962;2022-09-12T08:58:56;101353.97;;;15.98;62.81
70833;BME280;58452;59.418;17.962;2022-09-12T09:01:34;101361.47;;;16.09;62.39
70833;BME280;58452;59.418;17.962;2022-09-12T09:04:27;101356.41;;;16.24;62.96
70833;BME280;58452;59.418;17.962;2022-09-12T09:17:44;101346.78;;;16.00;60.89
70833;BME280;58452;59.418;17.962;2022-09-12T09:23:11;101333.47;;;16.35;61.01
70833;BME280;58452;59.418;17.962;2022-09-12T09:31:03;101331.50;;;16.62;57.14
70833;BME280;58452;59.418;17.962;2022-09-12T09:33:33;101339.28;;;16.70;58.06
70833;BME280;58452;59.418;17.962;2022-09-12T09:38:49;101328.06;;;16.53;57.79
70833;BME280;58452;59.418;17.962;2022-09-12T09:43:49;101325.94;;;16.65;57.43
70833;BME280;58452;59.418;17.962;2022-09-12T09:46:15;101328.03;;;16.77;57.99
70833;BME280;58452;59.418;17.962;2022-09-12T09:48:43;101326.53;;;16.91;59.41
70833;BME280;58452;59.418;17.962;2022-09-12T09:51:10;101319.94;;;17.03;58.28
70833;BME280;58452;59.418;17.962;2022-09-12T10:00:31;101327.84;;;17.26;55.63
70833;BME280;58452;59.418;17.962;2022-09-12T10:05:59;101319.88;;;17.27;55.84
70833;BME280;58452;59.418;17.962;2022-09-12T10:08:30;101318.53;;;17.31;54.87
70833;BME280;58452;59.418;17.962;2022-09-12T10:11:16;101315.06;;;17.39;55.74
70833;BME280;58452;59.418;17.962;2022-09-12T10:13:56;101307.06;;;17.40;55.95
70833;BME280;58452;59.418;17.962;2022-09-12T10:16:32;101305.44;;;17.39;56.91
70833;BME280;58452;59.418;17.962;2022-09-12T10:19:01;101310.91;;;17.52;56.96
70833;BME280;58452;59.418;17.962;2022-09-12T10:21:49;101310.91;;;17.61;55.81
70833;BME280;58452;59.418;17.962;2022-09-12T10:24:23;101303.44;;;17.72;54.64
70833;BME280;58452;59.418;17.962;2022-09-12T10:26:52;101299.63;;;17.60;53.88
70833;BME280;58452;59.418;17.962;2022-09-12T10:29:31;101300.72;;;17.66;54.08
70833;BME280;58452;59.418;17.962;2022-09-12T10:32:00;101300.31;;;17.77;54.66
70833;BME280;58452;59.418;17.962;2022-09-12T10:34:30;101295.41;;;17.82;53.77
70833;BME280;58452;59.418;17.962;2022-09-12T10:37:05;101299.03;;;17.95;54.23
70833;BME280;58452;59.418;17.962;2022-09-12T10:39:31;101295.75;;;17.79;53.58
70833;BME280;58452;59.418;17.962;2022-09-12T10:41:59;101290.63;;;17.85;53.24
70833;BME280;58452;59.418;17.962;2022-09-12T10:44:27;101294.13;;;18.00;51.31
70833;BME280;58452;59.418;17.962;2022-09-12T10:46:55;101285.28;;;18.16;53.35
70833;BME280;58452;59.418;17.962;2022-09-12T10:49:24;101293.06;;;18.24;52.38
70833;BME280;58452;59.418;17.962;2022-09-12T10:51:51;101291.66;;;18.36;54.17
70833;BME280;58452;59.418;17.962;2022-09-12T10:54:21;101291.72;;;18.28;51.71
70833;BME280;58452;59.418;17.962;2022-09-12T10:57:12;101297.81;;;18.06;50.87
70833;BME280;58452;59.418;17.962;2022-09-12T11:08:08;101288.13;;;18.29;50.03
70833;BME280;58452;59.418;17.962;2022-09-12T11:10:54;101283.09;;;18.42;49.19
70833;BME280;58452;59.418;17.962;2022-09-12T11:13:47;101286.56;;;18.58;49.07
70833;BME280;58452;59.418;17.962;2022-09-12T11:27:50;101282.94;;;18.88;50.47
70833;BME280;58452;59.418;17.962;2022-09-12T11:30:14;101270.66;;;19.03;47.35
70833;BME280;58452;59.418;17.962;2022-09-12T11:35:34;101278.75;;;19.08;48.03
70833;BME280;58452;59.418;17.962;2022-09-12T11:43:34;101281.69;;;18.84;46.24
70833;BME280;58452;59.418;17.962;2022-09-12T11:46:28;101280.50;;;18.57;46.58
70833;BME280;58452;59.418;17.962;2022-09-12T11:51:43;101279.50;;;18.43;48.74
70833;BME280;58452;59.418;17.962;2022-09-12T11:54:46;101283.38;;;18.47;51.85
70833;BME280;58452;59.418;17.962;2022-09-12T11:57:30;101274.13;;;18.60;51.86
70833;BME280;58452;59.418;17.962;2022-09-12T12:00:16;101272.06;;;18.55;50.43
70833;BME280;58452;59.418;17.962;2022-09-12T12:02:54;101268.97;;;18.51;50.81
70833;BME280;58452;59.418;17.962;2022-09-12T12:05:54;101274.47;;;18.57;51.11
70833;BME280;58452;59.418;17.962;2022-09-12T12:08:23;101269.56;;;18.24;50.88
70833;BME280;58452;59.418;17.962;2022-09-12T12:10:59;101266.69;;;18.19;51.67
70833;BME280;58452;59.418;17.962;2022-09-12T12:13:33;101261.25;;;18.21;51.95
70833;BME280;58452;59.418;17.962;2022-09-12T12:16:01;101255.44;;;18.33;51.77
70833;BME280;58452;59.418;17.962;2022-09-12T12:18:30;101264.09;;;18.34;51.42
70833;BME280;58452;59.418;17.962;2022-09-12T12:21:21;101253.75;;;18.55;53.23
70833;BME280;58452;59.418;17.962;2022-09-12T12:24:37;101253.66;;;18.78;51.27
70833;BME280;58452;59.418;17.962;2022-09-12T12:26:53;101255.09;;;18.80;48.35
70833;BME280;58452;59.418;17.962;2022-09-12T12:34:40;101258.53;;;18.66;49.42
70833;BME280;58452;59.418;17.962;2022-09-12T12:47:54;101243.91;;;18.72;50.62
70833;BME280;58452;59.418;17.962;2022-09-12T12:50:23;101238.94;;;18.77;50.34
70833;BME280;58452;59.418;17.962;2022-09-12T12:53:03;101243.81;;;18.80;50.19
70833;BME280;58452;59.418;17.962;2022-09-12T12:57:59;101234.69;;;18.46;50.00
70833;BME280;58452;59.418;17.962;2022-09-12T13:05:41;101233.41;;;18.13;48.28
70833;BME280;58452;59.418;17.962;2022-09-12T13:08:24;101233.97;;;18.09;48.66
70833;BME280;58452;59.418;17.962;2022-09-12T13:10:58;101229.09;;;18.20;49.03
70833;BME280;58452;59.418;17.962;2022-09-12T13:13:27;101230.56;;;18.23;49.29
70833;BME280;58452;59.418;17.962;2022-09-12T13:15:55;101230.34;;;18.39;49.46
70833;BME280;58452;59.418;17.962;2022-09-12T13:20:59;101232.19;;;18.53;49.23
70833;BME280;58452;59.418;17.962;2022-09-12T13:23:30;101225.16;;;18.53;47.73
70833;BME280;58452;59.418;17.962;2022-09-12T13:25:58;101222.34;;;18.40;48.74
70833;BME280;58452;59.418;17.962;2022-09-12T13:28:26;101225.44;;;18.59;50.66
70833;BME280;58452;59.418;17.962;2022-09-12T13:33:44;101226.03;;;18.75;51.00
70833;BME280;58452;59.418;17.962;2022-09-12T13:44:24;101215.72;;;19.03;48.75
70833;BME280;58452;59.418;17.962;2022-09-12T13:46:51;101214.06;;;19.02;47.91
70833;BME280;58452;59.418;17.962;2022-09-12T13:52:05;101202.88;;;19.08;47.63
70833;BME280;58452;59.418;17.962;2022-09-12T13:54:33;101199.16;;;19.17;49.13
70833;BME280;58452;59.418;17.962;2022-09-12T13:57:02;101202.25;;;19.06;49.28
70833;BME280;58452;59.418;17.962;2022-09-12T13:59:39;101203.56;;;18.95;48.54
70833;BME280;58452;59.418;17.962;2022-09-12T14:02:18;101203.50;;;19.10;50.87
70833;BME280;58452;59.418;17.962;2022-09-12T14:04:50;101203.25;;;19.05;49.93
70833;BME280;58452;59.418;17.962;2022-09-12T14:07:51;101202.13;;;18.93;47.29
70833;BME280;58452;59.418;17.962;2022-09-12T14:10:31;101205.78;;;18.63;49.48
70833;BME280;58452;59.418;17.962;2022-09-12T14:12:58;101197.66;;;18.28;49.86
70833;BME280;58452;59.418;17.962;2022-09-12T14:15:29;101201.81;;;18.37;50.57
70833;BME280;58452;59.418;17.962;2022-09-12T14:17:57;101197.84;;;18.27;50.89
70833;BME280;58452;59.418;17.962;2022-09-12T14:20:29;101195.41;;;18.25;51.97
70833;BME280;58452;59.418;17.962;2022-09-12T14:23:03;101194.88;;;18.30;51.44
70833;BME280;58452;59.418;17.962;2022-09-12T14:25:36;101187.03;;;18.15;51.01
70833;BME280;58452;59.418;17.962;2022-09-12T14:28:05;101190.00;;;18.27;52.10
70833;BME280;58452;59.418;17.962;2022-09-12T14:30:33;101190.53;;;18.37;50.93
70833;BME280;58452;59.418;17.962;2022-09-12T14:35:50;101186.94;;;18.09;50.05
70833;BME280;58452;59.418;17.962;2022-09-12T14:40:47;101179.63;;;18.33;51.28
70833;BME280;58452;59.418;17.962;2022-09-12T14:43:26;101184.13;;;18.39;53.18
70833;BME280;58452;59.418;17.962;2022-09-12T14:46:01;101181.44;;;18.47;54.30
70833;BME280;58452;59.418;17.962;2022-09-12T14:48:29;101180.25;;;18.50;52.68
70833;BME280;58452;59.418;17.962;2022-09-12T14:50:56;101179.72;;;18.54;51.46
70833;BME280;58452;59.418;17.962;2022-09-12T14:53:35;101176.03;;;18.64;50.65
70833;BME280;58452;59.418;17.962;2022-09-12T14:58:29;101170.44;;;18.67;51.98
70833;BME280;58452;59.418;17.962;2022-09-12T15:00:59;101169.88;;;18.57;52.19
70833;BME280;58452;59.418;17.962;2022-09-12T15:05:55;101171.34;;;18.44;52.85
70833;BME280;58452;59.418;17.962;2022-09-12T15:08:22;101172.94;;;18.45;53.61
70833;BME280;58452;59.418;17.962;2022-09-12T15:10:48;101169.97;;;18.48;54.51
70833;BME280;58452;59.418;17.962;2022-09-12T15:13:19;101171.44;;;18.51;54.92
70833;BME280;58452;59.418;17.962;2022-09-12T15:18:19;101172.69;;;18.55;54.22
70833;BME280;58452;59.418;17.962;2022-09-12T15:20:47;101162.25;;;18.55;54.44
70833;BME280;58452;59.418;17.962;2022-09-12T15:23:18;101156.66;;;18.58;54.31
70833;BME280;58452;59.418;17.962;2022-09-12T15:25:45;101161.44;;;18.54;54.51
70833;BME280;58452;59.418;17.962;2022-09-12T15:28:21;101158.81;;;18.40;54.54
70833;BME280;58452;59.418;17.962;2022-09-12T15:30:49;101161.31;;;18.48;54.83
70833;BME280;58452;59.418;17.962;2022-09-12T15:33:20;101153.88;;;18.60;54.80
70833;BME280;58452;59.418;17.962;2022-09-12T15:35:47;101155.84;;;18.58;54.35
70833;BME280;58452;59.418;17.962;2022-09-12T15:38:13;101150.88;;;18.48;53.45